sensor_id;sensor_type;location;lat;lon;timestamp;temperature;humidity
36552;DHT22;22559;54.176;12.102;2022-08-23T00:00:32;17.70;99.90
36552;DHT22;22559;54.176;12.102;2022-08-23T00:02:57;17.70;99.90
36552;DHT22;22559;54.176;12.102;2022-08-23T00:05:23;17.70;99.90
36552;DHT22;22559;54.176;12.102;2022-08-23T00:07:49;17.70;99.90
36552;DHT22;22559;54.176;12.102;2022-08-23T00:10:15;17.60;99.90
36552;DHT22;22559;54.176;12.102;2022-08-23T00:12:42;17.60;99.90
36552;DHT22;22559;54.176;12.102;2022-08-23T00:15:10;17.60;99.90
36552;DHT22;22559;54.176;12.102;2022-08-23T00:17:36;17.70;99.90
36552;DHT22;22559;54.176;12.102;2022-08-23T00:20:07;17.70;99.90
36552;DHT22;22559;54.176;12.102;2022-08-23T00:22:34;17.70;99.90
36552;DHT22;22559;54.176;12.102;2022-08-23T00:25:00;17.70;99.90
36552;DHT22;22559;54.176;12.102;2022-08-23T00:27:26;17.70;99.90
36552;DHT22;22559;54.176;12.102;2022-08-23T00:29:53;17.70;99.90
36552;DHT22;22559;54.176;12.102;2022-08-23T00:32:22;17.70;99.90
36552;DHT22;22559;54.176;12.102;2022-08-23T00:34:49;17.60;99.90
36552;DHT22;22559;54.176;12.102;2022-08-23T00:37:16;17.60;99.90
36552;DHT22;22559;54.176;12.102;2022-08-23T00:39:42;17.60;99.90
36552;DHT22;22559;54.176;12.102;2022-08-23T00:44:57;17.60;99.90
36552;DHT22;22559;54.176;12.102;2022-08-23T00:47:43;17.60;99.90
36552;DHT22;22559;54.176;12.102;2022-08-23T00:52:52;17.50;99.90
36552;DHT22;22559;54.176;12.102;2022-08-23T00:55:19;17.50;99.90
36552;DHT22;22559;54.176;12.102;2022-08-23T00:57:45;17.50;99.90
36552;DHT22;22559;54.176;12.102;2022-08-23T01:00:12;17.40;99.90
36552;DHT22;22559;54.176;12.102;2022-08-23T01:02:39;17.40;99.90
36552;DHT22;22559;54.176;12.102;2022-08-23T01:05:05;17.40;99.90
36552;DHT22;22559;54.176;12.102;2022-08-23T01:12:58;17.40;99.90
36552;DHT22;22559;54.176;12.102;2022-08-23T01:15:29;17.50;99.90
36552;DHT22;22559;54.176;12.102;2022-08-23T01:18:03;17.40;99.90
36552;DHT22;22559;54.176;12.102;2022-08-23T01:23:29;17.40;99.90
36552;DHT22;22559;54.176;12.102;2022-08-23T01:25:56;17.40;99.90
36552;DHT22;22559;54.176;12.102;2022-08-23T01:28:23;17.40;99.90
36552;DHT22;22559;54.176;12.102;2022-08-23T01:30:48;17.40;99.90
36552;DHT22;22559;54.176;12.102;2022-08-23T01:33:14;17.30;99.90
36552;DHT22;22559;54.176;12.102;2022-08-23T01:35:47;17.40;99.90
36552;DHT22;22559;54.176;12.102;2022-08-23T01:38:14;17.30;99.90
36552;DHT22;22559;54.176;12.102;2022-08-23T01:40:40;17.30;99.90
36552;DHT22;22559;54.176;12.102;2022-08-23T01:43:06;17.20;99.90
36552;DHT22;22559;54.176;12.102;2022-08-23T01:45:32;17.20;99.90
36552;DHT22;22559;54.176;12.102;2022-08-23T01:47:58;17.10;99.90
36552;DHT22;22559;54.176;12.102;2022-08-23T01:50:25;17.10;99.90
36552;DHT22;22559;54.176;12.102;2022-08-23T01:52:51;17.20;99.90
36552;DHT22;22559;54.176;12.102;2022-08-23T01:55:17;17.20;99.90
36552;DHT22;22559;54.176;12.102;2022-08-23T01:57:44;17.10;99.90
36552;DHT22;22559;54.176;12.102;2022-08-23T02:00:11;17.00;99.90
36552;DHT22;22559;54.176;12.102;2022-08-23T02:02:37;17.00;99.90
36552;DHT22;22559;54.176;12.102;2022-08-23T02:05:04;17.00;99.90
36552;DHT22;22559;54.176;12.102;2022-08-23T02:07:30;16.90;99.90
36552;DHT22;22559;54.176;12.102;2022-08-23T02:09:56;16.90;99.90
36552;DHT22;22559;54.176;12.102;2022-08-23T02:12:23;16.90;99.90
36552;DHT22;22559;54.176;12.102;2022-08-23T02:14:49;17.00;99.90
36552;DHT22;22559;54.176;12.102;2022-08-23T02:17:14;16.90;99.90
36552;DHT22;22559;54.176;12.102;2022-08-23T02:19:43;16.90;99.90
36552;DHT22;22559;54.176;12.102;2022-08-23T02:22:10;16.90;99.90
36552;DHT22;22559;54.176;12.102;2022-08-23T02:24:42;16.90;99.90
36552;DHT22;22559;54.176;12.102;2022-08-23T02:27:08;16.90;99.90
36552;DHT22;22559;54.176;12.102;2022-08-23T02:29:35;16.90;99.90
36552;DHT22;22559;54.176;12.102;2022-08-23T02:32:01;16.80;99.90
36552;DHT22;22559;54.176;12.102;2022-08-23T02:34:29;16.90;99.90
36552;DHT22;22559;54.176;12.102;2022-08-23T02:36:56;16.80;99.90
36552;DHT22;22559;54.176;12.102;2022-08-23T02:39:22;16.80;99.90
36552;DHT22;22559;54.176;12.102;2022-08-23T02:41:48;16.80;99.90
36552;DHT22;22559;54.176;12.102;2022-08-23T02:44:14;16.80;99.90
36552;DHT22;22559;54.176;12.102;2022-08-23T02:46:40;16.70;99.90
36552;DHT22;22559;54.176;12.102;2022-08-23T02:49:06;16.80;99.90
36552;DHT22;22559;54.176;12.102;2022-08-23T02:51:32;16.80;99.90
36552;DHT22;22559;54.176;12.102;2022-08-23T02:53:58;16.80;99.90
36552;DHT22;22559;54.176;12.102;2022-08-23T02:56:23;16.80;99.90
36552;DHT22;22559;54.176;12.102;2022-08-23T02:58:50;16.80;99.90
36552;DHT22;22559;54.176;12.102;2022-08-23T03:01:26;16.80;99.90
36552;DHT22;22559;54.176;12.102;2022-08-23T03:03:53;16.80;99.90
36552;DHT22;22559;54.176;12.102;2022-08-23T03:06:19;16.80;99.90
36552;DHT22;22559;54.176;12.102;2022-08-23T03:08:44;16.80;99.90
36552;DHT22;22559;54.176;12.102;2022-08-23T03:11:16;16.80;99.90
36552;DHT22;22559;54.176;12.102;2022-08-23T03:13:43;16.80;99.90
36552;DHT22;22559;54.176;12.102;2022-08-23T03:16:10;16.70;99.90
36552;DHT22;22559;54.176;12.102;2022-08-23T03:18:37;16.70;99.90
36552;DHT22;22559;54.176;12.102;2022-08-23T03:21:04;16.60;99.90
36552;DHT22;22559;54.176;12.102;2022-08-23T03:23:30;16.60;99.90
36552;DHT22;22559;54.176;12.102;2022-08-23T03:25:57;16.60;99.90
36552;DHT22;22559;54.176;12.102;2022-08-23T03:28:24;16.50;99.90
36552;DHT22;22559;54.176;12.102;2022-08-23T03:30:50;16.40;99.90
36552;DHT22;22559;54.176;12.102;2022-08-23T03:33:16;16.30;99.90
36552;DHT22;22559;54.176;12.102;2022-08-23T03:35:41;16.30;99.90
36552;DHT22;22559;54.176;12.102;2022-08-23T03:38:07;16.30;99.90
36552;DHT22;22559;54.176;12.102;2022-08-23T03:40:33;16.30;99.90
36552;DHT22;22559;54.176;12.102;2022-08-23T03:42:59;16.30;99.90
36552;DHT22;22559;54.176;12.102;2022-08-23T03:45:26;16.30;99.90
36552;DHT22;22559;54.176;12.102;2022-08-23T03:47:51;16.20;99.90
36552;DHT22;22559;54.176;12.102;2022-08-23T03:50:17;16.20;99.90
36552;DHT22;22559;54.176;12.102;2022-08-23T03:52:43;16.20;99.90
36552;DHT22;22559;54.176;12.102;2022-08-23T03:55:08;16.20;99.90
36552;DHT22;22559;54.176;12.102;2022-08-23T03:57:34;16.20;99.90
36552;DHT22;22559;54.176;12.102;2022-08-23T04:00:00;16.10;99.90
36552;DHT22;22559;54.176;12.102;2022-08-23T04:02:25;16.20;99.90
36552;DHT22;22559;54.176;12.102;2022-08-23T04:04:52;16.30;99.90
36552;DHT22;22559;54.176;12.102;2022-08-23T04:07:21;16.30;99.90
36552;DHT22;22559;54.176;12.102;2022-08-23T04:09:47;16.20;99.90
36552;DHT22;22559;54.176;12.102;2022-08-23T04:12:12;16.20;99.90
36552;DHT22;22559;54.176;12.102;2022-08-23T04:14:38;16.30;99.90
36552;DHT22;22559;54.176;12.102;2022-08-23T04:17:04;16.20;99.90
36552;DHT22;22559;54.176;12.102;2022-08-23T04:19:29;16.10;99.90
36552;DHT22;22559;54.176;12.102;2022-08-23T04:21:56;16.10;99.90
36552;DHT22;22559;54.176;12.102;2022-08-23T04:24:22;16.10;99.90
36552;DHT22;22559;54.176;12.102;2022-08-23T04:26:48;16.10;99.90
36552;DHT22;22559;54.176;12.102;2022-08-23T04:29:15;16.10;99.90
36552;DHT22;22559;54.176;12.102;2022-08-23T04:31:43;16.10;99.90
36552;DHT22;22559;54.176;12.102;2022-08-23T04:34:09;16.10;99.90
36552;DHT22;22559;54.176;12.102;2022-08-23T04:36:37;16.10;99.90
36552;DHT22;22559;54.176;12.102;2022-08-23T04:39:04;16.20;99.90
36552;DHT22;22559;54.176;12.102;2022-08-23T04:41:29;16.30;99.90
36552;DHT22;22559;54.176;12.102;2022-08-23T04:44:14;16.30;99.90
36552;DHT22;22559;54.176;12.102;2022-08-23T04:46:40;16.30;99.90
36552;DHT22;22559;54.176;12.102;2022-08-23T04:49:08;16.40;99.90
36552;DHT22;22559;54.176;12.102;2022-08-23T04:51:34;16.40;99.90
36552;DHT22;22559;54.176;12.102;2022-08-23T04:54:00;16.50;99.90
36552;DHT22;22559;54.176;12.102;2022-08-23T04:56:26;16.50;99.90
36552;DHT22;22559;54.176;12.102;2022-08-23T04:58:53;16.50;99.90
36552;DHT22;22559;54.176;12.102;2022-08-23T05:01:19;16.50;99.90
36552;DHT22;22559;54.176;12.102;2022-08-23T05:03:45;16.50;99.90
36552;DHT22;22559;54.176;12.102;2022-08-23T05:06:11;16.60;99.90
36552;DHT22;22559;54.176;12.102;2022-08-23T05:08:37;16.60;99.90
36552;DHT22;22559;54.176;12.102;2022-08-23T05:11:06;16.50;99.90
36552;DHT22;22559;54.176;12.102;2022-08-23T05:13:32;16.50;99.90
36552;DHT22;22559;54.176;12.102;2022-08-23T05:15:58;16.60;99.90
36552;DHT22;22559;54.176;12.102;2022-08-23T05:18:25;16.60;99.90
36552;DHT22;22559;54.176;12.102;2022-08-23T05:20:51;16.50;99.90
36552;DHT22;22559;54.176;12.102;2022-08-23T05:23:17;16.50;99.90
36552;DHT22;22559;54.176;12.102;2022-08-23T05:25:43;16.40;99.90
36552;DHT22;22559;54.176;12.102;2022-08-23T05:28:17;16.40;99.90
36552;DHT22;22559;54.176;12.102;2022-08-23T05:30:43;16.30;99.90
36552;DHT22;22559;54.176;12.102;2022-08-23T05:33:10;16.30;99.90
36552;DHT22;22559;54.176;12.102;2022-08-23T05:35:37;16.30;99.90
36552;DHT22;22559;54.176;12.102;2022-08-23T05:38:03;16.30;99.90
36552;DHT22;22559;54.176;12.102;2022-08-23T05:40:29;16.30;99.90
36552;DHT22;22559;54.176;12.102;2022-08-23T05:42:54;16.30;99.90
36552;DHT22;22559;54.176;12.102;2022-08-23T05:45:20;16.20;99.90
36552;DHT22;22559;54.176;12.102;2022-08-23T05:47:46;16.30;99.90
36552;DHT22;22559;54.176;12.102;2022-08-23T05:50:12;16.30;99.90
36552;DHT22;22559;54.176;12.102;2022-08-23T05:52:38;16.30;99.90
36552;DHT22;22559;54.176;12.102;2022-08-23T05:55:05;16.30;99.90
36552;DHT22;22559;54.176;12.102;2022-08-23T05:57:33;16.40;99.90
36552;DHT22;22559;54.176;12.102;2022-08-23T05:59:59;16.40;99.90
36552;DHT22;22559;54.176;12.102;2022-08-23T06:02:24;16.50;99.90
36552;DHT22;22559;54.176;12.102;2022-08-23T06:04:50;16.50;99.90
36552;DHT22;22559;54.176;12.102;2022-08-23T06:07:16;16.50;99.90
36552;DHT22;22559;54.176;12.102;2022-08-23T06:09:41;16.50;99.90
36552;DHT22;22559;54.176;12.102;2022-08-23T06:12:07;16.60;99.90
36552;DHT22;22559;54.176;12.102;2022-08-23T06:14:33;16.70;99.90
36552;DHT22;22559;54.176;12.102;2022-08-23T06:16:58;16.70;99.90
36552;DHT22;22559;54.176;12.102;2022-08-23T06:19:24;16.80;99.90
36552;DHT22;22559;54.176;12.102;2022-08-23T06:21:50;16.90;99.90
36552;DHT22;22559;54.176;12.102;2022-08-23T06:24:17;17.00;99.90
36552;DHT22;22559;54.176;12.102;2022-08-23T06:26:43;17.10;99.90
36552;DHT22;22559;54.176;12.102;2022-08-23T06:29:12;17.30;99.90
36552;DHT22;22559;54.176;12.102;2022-08-23T06:31:42;17.40;99.90
36552;DHT22;22559;54.176;12.102;2022-08-23T06:34:40;17.60;99.90
36552;DHT22;22559;54.176;12.102;2022-08-23T06:37:09;17.80;99.90
36552;DHT22;22559;54.176;12.102;2022-08-23T06:39:36;17.90;99.90
36552;DHT22;22559;54.176;12.102;2022-08-23T06:42:10;17.90;99.90
36552;DHT22;22559;54.176;12.102;2022-08-23T06:44:37;17.90;99.90
36552;DHT22;22559;54.176;12.102;2022-08-23T06:47:05;18.00;99.90
36552;DHT22;22559;54.176;12.102;2022-08-23T06:49:31;18.10;99.90
36552;DHT22;22559;54.176;12.102;2022-08-23T06:51:58;18.20;99.90
36552;DHT22;22559;54.176;12.102;2022-08-23T06:54:28;18.40;99.90
36552;DHT22;22559;54.176;12.102;2022-08-23T06:56:56;18.50;99.90
36552;DHT22;22559;54.176;12.102;2022-08-23T06:59:23;18.60;99.90
36552;DHT22;22559;54.176;12.102;2022-08-23T07:01:52;18.70;99.90
36552;DHT22;22559;54.176;12.102;2022-08-23T07:04:22;18.80;99.90
36552;DHT22;22559;54.176;12.102;2022-08-23T07:06:48;18.90;99.90
36552;DHT22;22559;54.176;12.102;2022-08-23T07:09:14;19.00;99.90
36552;DHT22;22559;54.176;12.102;2022-08-23T07:11:40;19.10;99.90
36552;DHT22;22559;54.176;12.102;2022-08-23T07:14:11;19.20;99.90
36552;DHT22;22559;54.176;12.102;2022-08-23T07:16:40;19.30;99.90
36552;DHT22;22559;54.176;12.102;2022-08-23T07:19:06;19.50;99.90
36552;DHT22;22559;54.176;12.102;2022-08-23T07:21:33;19.60;99.90
36552;DHT22;22559;54.176;12.102;2022-08-23T07:23:59;19.80;99.90
36552;DHT22;22559;54.176;12.102;2022-08-23T07:26:25;19.90;99.90
36552;DHT22;22559;54.176;12.102;2022-08-23T07:28:51;20.10;99.90
36552;DHT22;22559;54.176;12.102;2022-08-23T07:31:21;20.20;99.90
36552;DHT22;22559;54.176;12.102;2022-08-23T07:33:48;20.30;99.90
36552;DHT22;22559;54.176;12.102;2022-08-23T07:36:16;20.40;99.90
36552;DHT22;22559;54.176;12.102;2022-08-23T07:38:43;20.50;99.90
36552;DHT22;22559;54.176;12.102;2022-08-23T07:41:09;20.60;99.90
36552;DHT22;22559;54.176;12.102;2022-08-23T07:43:36;20.60;99.90
36552;DHT22;22559;54.176;12.102;2022-08-23T07:46:02;20.70;99.90
36552;DHT22;22559;54.176;12.102;2022-08-23T07:48:28;20.70;99.90
36552;DHT22;22559;54.176;12.102;2022-08-23T07:50:58;20.80;99.90
36552;DHT22;22559;54.176;12.102;2022-08-23T07:53:25;20.80;99.90
36552;DHT22;22559;54.176;12.102;2022-08-23T07:55:52;20.90;99.90
36552;DHT22;22559;54.176;12.102;2022-08-23T07:58:18;21.00;99.90
36552;DHT22;22559;54.176;12.102;2022-08-23T08:00:45;21.10;99.90
36552;DHT22;22559;54.176;12.102;2022-08-23T08:03:13;21.20;99.90
36552;DHT22;22559;54.176;12.102;2022-08-23T08:05:39;21.20;99.90
36552;DHT22;22559;54.176;12.102;2022-08-23T08:08:06;21.30;99.90
36552;DHT22;22559;54.176;12.102;2022-08-23T08:10:35;21.40;99.90
36552;DHT22;22559;54.176;12.102;2022-08-23T08:13:01;21.50;99.90
36552;DHT22;22559;54.176;12.102;2022-08-23T08:15:27;21.60;99.90
36552;DHT22;22559;54.176;12.102;2022-08-23T08:17:52;21.70;99.90
36552;DHT22;22559;54.176;12.102;2022-08-23T08:20:19;21.80;99.90
36552;DHT22;22559;54.176;12.102;2022-08-23T08:22:46;21.90;99.90
36552;DHT22;22559;54.176;12.102;2022-08-23T08:25:12;22.00;99.90
36552;DHT22;22559;54.176;12.102;2022-08-23T08:27:39;22.10;99.90
36552;DHT22;22559;54.176;12.102;2022-08-23T08:30:07;22.20;99.90
36552;DHT22;22559;54.176;12.102;2022-08-23T08:32:33;22.30;99.90
36552;DHT22;22559;54.176;12.102;2022-08-23T08:34:58;22.40;99.90
36552;DHT22;22559;54.176;12.102;2022-08-23T08:37:24;22.80;99.90
36552;DHT22;22559;54.176;12.102;2022-08-23T08:39:50;23.10;99.90
36552;DHT22;22559;54.176;12.102;2022-08-23T08:45:11;23.80;99.90
36552;DHT22;22559;54.176;12.102;2022-08-23T08:50:30;25.30;99.90
36552;DHT22;22559;54.176;12.102;2022-08-23T08:53:07;26.30;99.90
36552;DHT22;22559;54.176;12.102;2022-08-23T08:55:56;27.10;99.90
36552;DHT22;22559;54.176;12.102;2022-08-23T08:58:32;28.00;99.90
36552;DHT22;22559;54.176;12.102;2022-08-23T09:01:00;28.60;99.90
36552;DHT22;22559;54.176;12.102;2022-08-23T09:03:30;28.70;99.90
36552;DHT22;22559;54.176;12.102;2022-08-23T09:14:02;29.60;99.90
36552;DHT22;22559;54.176;12.102;2022-08-23T09:19:03;30.40;99.90
36552;DHT22;22559;54.176;12.102;2022-08-23T09:21:48;29.80;99.90
36552;DHT22;22559;54.176;12.102;2022-08-23T09:24:18;29.10;99.90
36552;DHT22;22559;54.176;12.102;2022-08-23T09:26:43;28.60;99.90
36552;DHT22;22559;54.176;12.102;2022-08-23T09:31:48;29.40;99.90
36552;DHT22;22559;54.176;12.102;2022-08-23T09:34:39;29.30;99.90
36552;DHT22;22559;54.176;12.102;2022-08-23T09:37:21;29.60;99.90
36552;DHT22;22559;54.176;12.102;2022-08-23T09:40:12;29.90;99.90
36552;DHT22;22559;54.176;12.102;2022-08-23T09:42:39;29.80;99.90
36552;DHT22;22559;54.176;12.102;2022-08-23T09:45:26;29.90;99.90
36552;DHT22;22559;54.176;12.102;2022-08-23T09:47:53;29.90;99.90
36552;DHT22;22559;54.176;12.102;2022-08-23T09:52:47;29.70;99.90
36552;DHT22;22559;54.176;12.102;2022-08-23T09:55:33;30.10;99.90
36552;DHT22;22559;54.176;12.102;2022-08-23T09:58:02;30.30;99.90
36552;DHT22;22559;54.176;12.102;2022-08-23T10:00:34;30.40;99.90
36552;DHT22;22559;54.176;12.102;2022-08-23T10:03:23;30.20;99.90
36552;DHT22;22559;54.176;12.102;2022-08-23T10:05:55;30.40;99.90
36552;DHT22;22559;54.176;12.102;2022-08-23T10:08:28;30.00;99.90
36552;DHT22;22559;54.176;12.102;2022-08-23T10:11:04;29.90;99.90
36552;DHT22;22559;54.176;12.102;2022-08-23T10:13:31;29.80;99.90
36552;DHT22;22559;54.176;12.102;2022-08-23T10:21:46;30.60;99.90
36552;DHT22;22559;54.176;12.102;2022-08-23T10:27:03;31.30;99.90
36552;DHT22;22559;54.176;12.102;2022-08-23T10:29:53;31.30;99.90
36552;DHT22;22559;54.176;12.102;2022-08-23T10:46:28;30.90;99.90
36552;DHT22;22559;54.176;12.102;2022-08-23T10:48:57;31.10;99.90
36552;DHT22;22559;54.176;12.102;2022-08-23T10:51:32;31.00;99.90
36552;DHT22;22559;54.176;12.102;2022-08-23T10:54:09;30.90;99.90
36552;DHT22;22559;54.176;12.102;2022-08-23T10:56:37;30.70;99.90
36552;DHT22;22559;54.176;12.102;2022-08-23T10:59:22;30.90;99.90
36552;DHT22;22559;54.176;12.102;2022-08-23T11:07:01;31.20;99.90
36552;DHT22;22559;54.176;12.102;2022-08-23T11:10:07;31.30;99.90
36552;DHT22;22559;54.176;12.102;2022-08-23T11:12:35;31.30;99.90
36552;DHT22;22559;54.176;12.102;2022-08-23T11:15:12;31.00;99.90
36552;DHT22;22559;54.176;12.102;2022-08-23T11:26:02;30.70;99.90
36552;DHT22;22559;54.176;12.102;2022-08-23T11:33:33;30.50;99.90
36552;DHT22;22559;54.176;12.102;2022-08-23T11:36:16;31.00;99.90
36552;DHT22;22559;54.176;12.102;2022-08-23T11:41:28;31.30;99.90
36552;DHT22;22559;54.176;12.102;2022-08-23T11:46:30;31.00;99.90
36552;DHT22;22559;54.176;12.102;2022-08-23T11:54:44;30.80;99.90
36552;DHT22;22559;54.176;12.102;2022-08-23T12:02:44;30.60;99.90
36552;DHT22;22559;54.176;12.102;2022-08-23T12:18:52;30.80;99.90
36552;DHT22;22559;54.176;12.102;2022-08-23T12:24:16;31.30;99.90
36552;DHT22;22559;54.176;12.102;2022-08-23T12:35:21;31.00;99.90
36552;DHT22;22559;54.176;12.102;2022-08-23T12:38:05;31.30;99.90
36552;DHT22;22559;54.176;12.102;2022-08-23T12:40:49;31.20;99.90
36552;DHT22;22559;54.176;12.102;2022-08-23T12:45:46;31.10;99.90
36552;DHT22;22559;54.176;12.102;2022-08-23T12:48:16;30.70;99.90
36552;DHT22;22559;54.176;12.102;2022-08-23T12:50:44;30.60;99.90
36552;DHT22;22559;54.176;12.102;2022-08-23T12:53:16;30.80;99.90
36552;DHT22;22559;54.176;12.102;2022-08-23T12:55:50;30.70;99.90
36552;DHT22;22559;54.176;12.102;2022-08-23T12:58:27;30.80;99.90
36552;DHT22;22559;54.176;12.102;2022-08-23T13:00:59;31.00;99.90
36552;DHT22;22559;54.176;12.102;2022-08-23T13:03:32;30.90;99.90
36552;DHT22;22559;54.176;12.102;2022-08-23T13:06:08;30.90;99.90
36552;DHT22;22559;54.176;12.102;2022-08-23T13:08:39;30.90;99.90
36552;DHT22;22559;54.176;12.102;2022-08-23T13:11:08;30.70;99.90
36552;DHT22;22559;54.176;12.102;2022-08-23T13:13:36;30.70;99.90
36552;DHT22;22559;54.176;12.102;2022-08-23T13:18:47;30.50;99.90
36552;DHT22;22559;54.176;12.102;2022-08-23T13:23:57;30.60;99.90
36552;DHT22;22559;54.176;12.102;2022-08-23T13:26:39;30.60;99.90
36552;DHT22;22559;54.176;12.102;2022-08-23T13:31:51;30.00;99.90
36552;DHT22;22559;54.176;12.102;2022-08-23T13:34:40;30.40;99.90
36552;DHT22;22559;54.176;12.102;2022-08-23T13:37:25;30.70;99.90
36552;DHT22;22559;54.176;12.102;2022-08-23T13:40:04;30.80;99.90
36552;DHT22;22559;54.176;12.102;2022-08-23T13:45:30;31.00;99.90
36552;DHT22;22559;54.176;12.102;2022-08-23T13:48:18;30.50;99.90
36552;DHT22;22559;54.176;12.102;2022-08-23T13:50:41;30.00;99.90
36552;DHT22;22559;54.176;12.102;2022-08-23T13:53:08;30.40;99.90
36552;DHT22;22559;54.176;12.102;2022-08-23T13:56:00;30.50;99.90
36552;DHT22;22559;54.176;12.102;2022-08-23T13:58:31;30.40;99.90
36552;DHT22;22559;54.176;12.102;2022-08-23T14:01:00;30.60;99.90
36552;DHT22;22559;54.176;12.102;2022-08-23T14:03:27;30.50;99.90
36552;DHT22;22559;54.176;12.102;2022-08-23T14:05:53;30.20;99.90
36552;DHT22;22559;54.176;12.102;2022-08-23T14:08:20;30.10;99.90
36552;DHT22;22559;54.176;12.102;2022-08-23T14:10:46;30.40;99.90
36552;DHT22;22559;54.176;12.102;2022-08-23T14:13:13;30.70;99.90
36552;DHT22;22559;54.176;12.102;2022-08-23T14:15:41;30.60;99.90
36552;DHT22;22559;54.176;12.102;2022-08-23T14:18:08;31.00;99.90
36552;DHT22;22559;54.176;12.102;2022-08-23T14:20:34;31.00;99.90
36552;DHT22;22559;54.176;12.102;2022-08-23T14:23:00;31.10;99.90
36552;DHT22;22559;54.176;12.102;2022-08-23T14:25:26;30.80;99.90
36552;DHT22;22559;54.176;12.102;2022-08-23T14:27:52;30.50;99.90
36552;DHT22;22559;54.176;12.102;2022-08-23T14:30:30;30.60;99.90
36552;DHT22;22559;54.176;12.102;2022-08-23T14:32:57;30.70;99.90
36552;DHT22;22559;54.176;12.102;2022-08-23T14:35:23;30.70;99.90
36552;DHT22;22559;54.176;12.102;2022-08-23T14:37:49;31.00;99.90
36552;DHT22;22559;54.176;12.102;2022-08-23T14:40:15;30.70;99.90
36552;DHT22;22559;54.176;12.102;2022-08-23T14:42:45;30.70;99.90
36552;DHT22;22559;54.176;12.102;2022-08-23T14:45:12;30.60;99.90
36552;DHT22;22559;54.176;12.102;2022-08-23T14:47:38;30.90;99.90
36552;DHT22;22559;54.176;12.102;2022-08-23T14:50:06;30.60;99.90
36552;DHT22;22559;54.176;12.102;2022-08-23T14:52:32;31.10;99.90
36552;DHT22;22559;54.176;12.102;2022-08-23T14:54:58;31.20;99.90
36552;DHT22;22559;54.176;12.102;2022-08-23T14:57:23;31.00;99.90
36552;DHT22;22559;54.176;12.102;2022-08-23T14:59:49;30.60;99.90
36552;DHT22;22559;54.176;12.102;2022-08-23T15:02:23;31.00;99.90
36552;DHT22;22559;54.176;12.102;2022-08-23T15:04:50;31.10;99.90
36552;DHT22;22559;54.176;12.102;2022-08-23T15:07:16;30.80;99.90
36552;DHT22;22559;54.176;12.102;2022-08-23T15:09:42;30.40;99.90
36552;DHT22;22559;54.176;12.102;2022-08-23T15:12:08;30.30;99.90
36552;DHT22;22559;54.176;12.102;2022-08-23T15:14:33;30.00;99.90
36552;DHT22;22559;54.176;12.102;2022-08-23T15:16:59;29.20;99.90
36552;DHT22;22559;54.176;12.102;2022-08-23T15:19:25;29.50;99.90
36552;DHT22;22559;54.176;12.102;2022-08-23T15:21:51;29.10;99.90
36552;DHT22;22559;54.176;12.102;2022-08-23T15:24:16;29.10;99.90
36552;DHT22;22559;54.176;12.102;2022-08-23T15:26:42;28.90;99.90
36552;DHT22;22559;54.176;12.102;2022-08-23T15:29:07;28.40;99.90
36552;DHT22;22559;54.176;12.102;2022-08-23T15:31:33;28.20;99.90
36552;DHT22;22559;54.176;12.102;2022-08-23T15:33:59;28.40;99.90
36552;DHT22;22559;54.176;12.102;2022-08-23T15:36:25;28.60;99.90
36552;DHT22;22559;54.176;12.102;2022-08-23T15:38:52;28.50;99.90
36552;DHT22;22559;54.176;12.102;2022-08-23T15:41:19;28.60;99.90
36552;DHT22;22559;54.176;12.102;2022-08-23T15:43:45;28.80;99.90
36552;DHT22;22559;54.176;12.102;2022-08-23T15:46:16;28.50;99.90
36552;DHT22;22559;54.176;12.102;2022-08-23T15:51:09;28.50;99.90
36552;DHT22;22559;54.176;12.102;2022-08-23T15:53:36;28.50;99.90
36552;DHT22;22559;54.176;12.102;2022-08-23T15:56:07;28.40;99.90
36552;DHT22;22559;54.176;12.102;2022-08-23T15:58:35;28.50;99.90
36552;DHT22;22559;54.176;12.102;2022-08-23T16:01:01;28.60;99.90
36552;DHT22;22559;54.176;12.102;2022-08-23T16:03:27;28.40;99.90
36552;DHT22;22559;54.176;12.102;2022-08-23T16:05:52;28.40;99.90
36552;DHT22;22559;54.176;12.102;2022-08-23T16:08:28;28.20;99.90
36552;DHT22;22559;54.176;12.102;2022-08-23T16:10:54;28.30;99.90
36552;DHT22;22559;54.176;12.102;2022-08-23T16:13:21;28.10;99.90
36552;DHT22;22559;54.176;12.102;2022-08-23T16:15:47;28.30;99.90
36552;DHT22;22559;54.176;12.102;2022-08-23T16:18:13;27.70;99.90
36552;DHT22;22559;54.176;12.102;2022-08-23T16:20:39;27.50;99.90
36552;DHT22;22559;54.176;12.102;2022-08-23T16:23:05;27.40;99.90
36552;DHT22;22559;54.176;12.102;2022-08-23T16:25:30;27.60;99.90
36552;DHT22;22559;54.176;12.102;2022-08-23T16:27:56;27.40;99.90
36552;DHT22;22559;54.176;12.102;2022-08-23T16:30:22;27.20;99.90
36552;DHT22;22559;54.176;12.102;2022-08-23T16:32:48;27.30;99.90
36552;DHT22;22559;54.176;12.102;2022-08-23T16:35:14;27.10;99.90
36552;DHT22;22559;54.176;12.102;2022-08-23T16:37:40;26.90;99.90
36552;DHT22;22559;54.176;12.102;2022-08-23T16:40:07;26.90;99.90
36552;DHT22;22559;54.176;12.102;2022-08-23T16:42:33;26.60;99.90
36552;DHT22;22559;54.176;12.102;2022-08-23T16:44:59;26.50;99.90
36552;DHT22;22559;54.176;12.102;2022-08-23T16:47:24;26.60;99.90
36552;DHT22;22559;54.176;12.102;2022-08-23T16:49:50;26.50;99.90
36552;DHT22;22559;54.176;12.102;2022-08-23T16:52:16;26.30;99.90
36552;DHT22;22559;54.176;12.102;2022-08-23T16:54:42;26.10;99.90
36552;DHT22;22559;54.176;12.102;2022-08-23T16:57:07;25.80;99.90
36552;DHT22;22559;54.176;12.102;2022-08-23T16:59:33;25.50;99.90
36552;DHT22;22559;54.176;12.102;2022-08-23T17:02:02;25.30;99.90
36552;DHT22;22559;54.176;12.102;2022-08-23T17:04:30;25.00;99.90
36552;DHT22;22559;54.176;12.102;2022-08-23T17:06:56;24.60;99.90
36552;DHT22;22559;54.176;12.102;2022-08-23T17:09:24;24.30;99.90
36552;DHT22;22559;54.176;12.102;2022-08-23T17:11:51;24.00;99.90
36552;DHT22;22559;54.176;12.102;2022-08-23T17:14:17;23.80;99.90
36552;DHT22;22559;54.176;12.102;2022-08-23T17:16:43;23.60;99.90
36552;DHT22;22559;54.176;12.102;2022-08-23T17:19:10;23.40;99.90
36552;DHT22;22559;54.176;12.102;2022-08-23T17:21:36;23.30;99.90
36552;DHT22;22559;54.176;12.102;2022-08-23T17:24:02;23.10;99.90
36552;DHT22;22559;54.176;12.102;2022-08-23T17:26:28;22.80;99.90
36552;DHT22;22559;54.176;12.102;2022-08-23T17:28:54;22.70;99.90
36552;DHT22;22559;54.176;12.102;2022-08-23T17:31:21;22.40;99.90
36552;DHT22;22559;54.176;12.102;2022-08-23T17:33:47;22.20;99.90
36552;DHT22;22559;54.176;12.102;2022-08-23T17:36:42;22.10;99.90